Time;durP1;ratioP1;P1;durP2;ratioP2;P2;SDS_P1;SDS_P2;PMS_P1;PMS_P2;Temp;Humidity;BMP_temperature;BMP_pressure;BME280_temperature;BME280_humidity;BME280_pressure;Samples;Min_cycle;Max_cycle;Signal;HPM_P1;HPM_P2
2022/07/11 00:07:31;;;;;;;7.78;4.97;;;;;;;;;;5080995;29;20120;-94
2022/07/11 00:13:11;;;;;;;8.63;5.85;;;;;;;;;;5135421;29;20366;-93
2022/07/11 00:15:56;;;;;;;12.15;8.23;;;;;;;;;;5128897;29;20034;-93
2022/07/11 00:19:11;;;;;;;9.02;5.95;;;;;;;;;;5139345;29;20047;-93
2022/07/11 00:22:25;;;;;;;6.47;5.45;;;;;;;;;;5124990;29;20021;-93
2022/07/11 00:32:13;;;;;;;8.48;6.55;;;;;;;;;;5041531;29;20095;-93
2022/07/11 00:35:12;;;;;;;8.38;5.45;;;;;;;;;;5041705;29;20099;-93
2022/07/11 00:38:17;;;;;;;10.63;6.90;;;;;;;;;;5057441;29;20044;-93
2022/07/11 00:41:02;;;;;;;;;;;;;;;;;;;;;
2022/07/11 00:54:36;;;;;;;7.47;5.75;;;;;;;;;;4986241;29;20028;-95
2022/07/11 00:57:26;;;;;;;6.20;5.55;;;;;;;;;;4950535;30;20040;-94
2022/07/11 01:00:11;;;;;;;8.98;5.97;;;;;;;;;;4980054;29;20051;-94
2022/07/11 01:05:39;;;;;;;10.50;6.25;;;;;;;;;;5516081;23;20075;-93
2022/07/11 01:08:22;;;;;;;9.80;6.93;;;;;;;;;;5132642;29;20112;-94
2022/07/11 01:11:23;;;;;;;7.75;6.25;;;;;;;;;;5134099;29;20429;-94
2022/07/11 01:14:02;;;;;;;9.32;6.30;;;;;;;;;;5120973;29;20514;-95
2022/07/11 01:19:52;;;;;;;9.32;7.82;;;;;;;;;;5099966;29;20041;-93
2022/07/11 01:25:56;;;;;;;10.93;7.75;;;;;;;;;;5099799;29;20402;-93
2022/07/11 01:32:06;;;;;;;13.82;8.60;;;;;;;;;;5041925;29;20030;-93
2022/07/11 01:35:14;;;;;;;;;;;;;;;;;;;;;
2022/07/11 01:45:58;;;;;;;12.13;8.25;;;;;;;;;;5059297;29;20032;-93
2022/07/11 01:49:02;;;;;;;;;;;;;;;;;;;;;
2022/07/11 01:55:02;;;;;;;14.50;9.55;;;;;;;;;;4912661;30;20052;-93
2022/07/11 02:00:53;;;;;;;16.33;10.30;;;;;;;;;;4982454;29;20079;-92
2022/07/11 02:07:15;;;;;;;;;;;;;;;;;;;;;
2022/07/11 02:10:01;;;;;;;17.30;11.63;;;;;;;;;;4961012;29;42796;-93
2022/07/11 02:12:42;;;;;;;19.60;12.77;;;;;;;;;;5080825;29;20045;-93
2022/07/11 02:15:28;;;;;;;14.90;10.98;;;;;;;;;;5105651;29;20100;-93
2022/07/11 02:25:02;;;;;;;13.68;10.07;;;;;;;;;;5083887;29;20493;-93
2022/07/11 02:31:27;;;;;;;12.88;10.35;;;;;;;;;;5075406;29;20030;-92
2022/07/11 02:34:17;;;;;;;16.63;12.15;;;;;;;;;;5066616;29;20486;-92
2022/07/11 02:37:29;;;;;;;;;;;;;;;;;;;;;
2022/07/11 02:40:29;;;;;;;;;;;;;;;;;;;;;
2022/07/11 02:43:01;;;;;;;18.27;11.88;;;;;;;;;;5043223;29;40297;-92
2022/07/11 02:45:47;;;;;;;11.43;10.23;;;;;;;;;;5028276;29;20125;-93
2022/07/11 02:48:50;;;;;;;;;;;;;;;;;;;;;
2022/07/11 02:52:01;;;;;;;20.17;12.85;;;;;;;;;;5052337;29;40166;-94
2022/07/11 02:54:58;;;;;;;;;;;;;;;;;;;;;
2022/07/11 03:07:34;;;;;;;19.75;13.68;;;;;;;;;;5060197;29;20209;-93
2022/07/11 03:10:19;;;;;;;15.50;12.25;;;;;;;;;;5077190;29;20106;-92
2022/07/11 03:16:07;;;;;;;21.23;14.05;;;;;;;;;;5070898;29;20041;-92
2022/07/11 03:19:00;;;;;;;18.35;13.02;;;;;;;;;;5069315;29;20029;-93
2022/07/11 03:25:03;;;;;;;17.25;13.50;;;;;;;;;;5059702;29;20033;-90
2022/07/11 03:28:07;;;;;;;18.58;13.60;;;;;;;;;;5038650;29;20457;-91
2022/07/11 03:31:17;;;;;;;15.68;11.43;;;;;;;;;;5040886;29;20043;-91
2022/07/11 03:37:04;;;;;;;;;;;;;;;;;;;;;
2022/07/11 03:46:41;;;;;;;19.95;13.95;;;;;;;;;;5007441;29;20039;-91
2022/07/11 03:49:18;;;;;;;17.65;11.90;;;;;;;;;;5023708;29;20051;-92
2022/07/11 03:52:23;;;;;;;21.50;13.10;;;;;;;;;;5054987;29;20034;-92
2022/07/11 03:55:00;;;;;;;20.05;14.30;;;;;;;;;;5136236;28;20060;-91
2022/07/11 03:57:47;;;;;;;;;;;;;;;;;;;;;
2022/07/11 04:00:42;;;;;;;16.65;13.88;;;;;;;;;;5157859;29;40374;-92
2022/07/11 04:06:45;;;;;;;;;;;;;;;;;;;;;
2022/07/11 04:09:37;;;;;;;15.20;11.75;;;;;;;;;;5158199;28;40277;-92
2022/07/11 04:16:04;;;;;;;18.65;13.70;;;;;;;;;;5133797;28;20032;-91
2022/07/11 04:19:05;;;;;;;19.98;13.20;;;;;;;;;;5101065;29;20032;-91
2022/07/11 04:22:06;;;;;;;;;;;;;;;;;;;;;
2022/07/11 04:24:49;;;;;;;16.02;13.32;;;;;;;;;;5110097;29;40439;-92
2022/07/11 04:33:40;;;;;;;20.58;13.15;;;;;;;;;;5090270;29;20068;-94
2022/07/11 04:39:45;;;;;;;16.70;12.35;;;;;;;;;;5059738;29;20035;-93
2022/07/11 04:42:54;;;;;;;;;;;;;;;;;;;;;
2022/07/11 04:48:41;;;;;;;14.25;12.02;;;;;;;;;;5062679;29;20411;-86
2022/07/11 04:52:16;;;;;;;16.80;11.43;;;;;;;;;;5120332;28;20048;-90
2022/07/11 04:54:28;;;;;;;18.80;10.60;;;;;;;;;;5113698;29;20079;-93
2022/07/11 04:57:16;;;;;;;11.18;9.23;;;;;;;;;;5123609;29;20048;-93
2022/07/11 05:00:04;;;;;;;12.30;10.20;;;;;;;;;;5124271;29;20110;-93
2022/07/11 05:02:57;;;;;;;;;;;;;;;;;;;;;
2022/07/11 05:05:40;;;;;;;17.45;10.98;;;;;;;;;;5140420;29;39349;-93
2022/07/11 05:08:24;;;;;;;15.02;10.95;;;;;;;;;;5123516;29;20074;-92
2022/07/11 05:11:49;;;;;;;17.35;9.95;;;;;;;;;;5123790;29;20143;-92
2022/07/11 05:21:08;;;;;;;11.20;9.05;;;;;;;;;;5049760;29;20125;-91
2022/07/11 05:24:12;;;;;;;11.27;6.97;;;;;;;;;;5070085;29;20044;-91
2022/07/11 05:40:31;;;;;;;13.27;8.25;;;;;;;;;;5041296;29;20426;-91
2022/07/11 05:46:39;;;;;;;11.00;7.13;;;;;;;;;;5097363;29;20045;-92
2022/07/11 05:49:47;;;;;;;;;;;;;;;;;;;;;
2022/07/11 06:02:44;;;;;;;9.90;8.38;;;;;;;;;;5005511;29;20694;-93
2022/07/11 06:06:04;;;;;;;;;;;;;;;;;;;;;
2022/07/11 06:09:07;;;;;;;9.40;6.75;;;;;;;;;;4944205;30;40558;-92
2022/07/11 06:12:15;;;;;;;;;;;;;;;;;;;;;
2022/07/11 06:15:11;;;;;;;;;;;;;;;;;;;;;
2022/07/11 06:21:18;;;;;;;12.88;8.35;;;;;;;;;;5005943;29;20419;-93
2022/07/11 06:24:38;;;;;;;;;;;;;;;;;;;;;
2022/07/11 06:31:08;;;;;;;13.07;9.17;;;;;;;;;;5064421;29;20086;-96
2022/07/11 06:34:18;;;;;;;;;;;;;;;;;;;;;
2022/07/11 06:47:04;;;;;;;9.07;7.28;;;;;;;;;;5050136;29;20058;-95
2022/07/11 06:49:53;;;;;;;8.43;6.90;;;;;;;;;;5048752;29;20046;-96
2022/07/11 07:06:07;;;;;;;5.50;5.00;;;;;;;;;;4980365;29;20089;-95
2022/07/11 07:09:18;;;;;;;6.68;5.82;;;;;;;;;;4990155;29;20044;-95
2022/07/11 07:21:44;;;;;;;6.88;5.28;;;;;;;;;;5150128;29;20051;-95
2022/07/11 07:24:21;;;;;;;10.05;6.65;;;;;;;;;;5097112;29;20045;-95
2022/07/11 07:31:10;;;;;;;;;;;;;;;;;;;;;
2022/07/11 07:34:14;;;;;;;7.72;5.63;;;;;;;;;;5009047;29;43062;-96
2022/07/11 07:37:27;;;;;;;9.23;5.53;;;;;;;;;;4954864;30;20040;-96
2022/07/11 07:43:51;;;;;;;6.80;5.82;;;;;;;;;;4951006;29;20045;-96
2022/07/11 07:47:19;;;;;;;;;;;;;;;;;;;;;
2022/07/11 07:50:22;;;;;;;;;;;;;;;;;;;;;
2022/07/11 07:56:49;;;;;;;5.18;4.38;;;;;;;;;;4932323;30;20065;-93
2022/07/11 07:59:48;;;;;;;;;;;;;;;;;;;;;
2022/07/11 08:02:43;;;;;;;6.55;5.07;;;;;;;;;;5043260;29;20035;-96
2022/07/11 08:05:32;;;;;;;6.40;5.10;;;;;;;;;;5029561;29;20421;-96
2022/07/11 08:08:59;;;;;;;;;;;;;;;;;;;;;
2022/07/11 08:15:40;;;;;;;;;;;;;;;;;;;;;
2022/07/11 08:31:37;;;;;;;5.50;5.00;;;;;;;;;;5130322;28;21669;-85
2022/07/11 08:34:14;;;;;;;8.25;5.03;;;;;;;;;;5136752;29;20096;-86
2022/07/11 08:37:18;;;;;;;6.93;5.65;;;;;;;;;;5134303;29;20519;-86
2022/07/11 08:53:54;;;;;;;7.63;6.45;;;;;;;;;;5072197;29;20053;-86
2022/07/11 08:56:49;;;;;;;;;;;;;;;;;;;;;
2022/07/11 08:59:43;;;;;;;;;;;;;;;;;;;;;
2022/07/11 09:02:18;;;;;;;7.00;6.30;;;;;;;;;;5048072;29;41231;-86
2022/07/11 09:05:11;;;;;;;7.57;6.60;;;;;;;;;;5035121;29;20034;-86
2022/07/11 09:07:53;;;;;;;11.90;7.03;;;;;;;;;;5087878;29;20052;-85
2022/07/11 09:10:25;;;;;;;9.27;6.70;;;;;;;;;;5109637;29;20037;-86
2022/07/11 09:13:37;;;;;;;;;;;;;;;;;;;;;
2022/07/11 09:16:44;;;;;;;7.82;6.60;;;;;;;;;;5124918;29;41741;-87
2022/07/11 09:19:39;;;;;;;;;;;;;;;;;;;;;
2022/07/11 09:39:02;;;;;;;6.70;6.00;;;;;;;;;;5131694;29;20130;-86
2022/07/11 09:44:33;;;;;;;6.20;5.28;;;;;;;;;;5129707;28;20048;-86
2022/07/11 09:47:16;;;;;;;6.15;5.28;;;;;;;;;;5117195;29;20140;-85
2022/07/11 09:50:14;;;;;;;7.95;5.50;;;;;;;;;;5155731;28;20036;-86
2022/07/11 09:53:22;;;;;;;7.25;6.15;;;;;;;;;;5152299;28;20155;-86
2022/07/11 09:56:20;;;;;;;7.97;5.63;;;;;;;;;;5139274;28;20063;-86
2022/07/11 10:02:02;;;;;;;7.53;6.68;;;;;;;;;;5152234;29;20028;-85
2022/07/11 10:04:46;;;;;;;8.70;6.60;;;;;;;;;;5140601;28;20120;-84
2022/07/11 10:07:20;;;;;;;7.95;6.38;;;;;;;;;;5135311;29;20040;-85
2022/07/11 10:09:58;;;;;;;6.45;5.78;;;;;;;;;;5138658;29;20040;-85
2022/07/11 10:12:31;;;;;;;8.30;6.75;;;;;;;;;;5146800;28;20079;-86
2022/07/11 10:15:14;;;;;;;10.68;7.28;;;;;;;;;;5132181;29;20035;-86
2022/07/11 10:18:25;;;;;;;8.20;6.88;;;;;;;;;;5118892;29;20120;-86
2022/07/11 10:21:12;;;;;;;7.40;6.05;;;;;;;;;;5098338;29;20071;-86
2022/07/11 10:23:50;;;;;;;7.47;5.65;;;;;;;;;;5116198;29;20848;-87
2022/07/11 10:26:57;;;;;;;9.38;6.53;;;;;;;;;;5109585;29;20044;-86
2022/07/11 10:29:42;;;;;;;10.17;6.20;;;;;;;;;;5130050;29;20419;-86
2022/07/11 10:32:36;;;;;;;7.57;5.97;;;;;;;;;;5126433;29;20076;-86
2022/07/11 10:35:15;;;;;;;8.80;6.25;;;;;;;;;;5126213;28;20541;-87
2022/07/11 10:38:01;;;;;;;8.07;6.78;;;;;;;;;;5131575;29;20028;-86
2022/07/11 10:40:56;;;;;;;8.10;6.47;;;;;;;;;;5125780;29;20147;-85
2022/07/11 10:43:33;;;;;;;10.52;6.53;;;;;;;;;;5126920;29;20048;-85
2022/07/11 10:46:24;;;;;;;8.65;5.50;;;;;;;;;;5113013;29;20051;-85
2022/07/11 10:49:04;;;;;;;9.30;5.90;;;;;;;;;;5091934;29;20128;-85
2022/07/11 10:52:16;;;;;;;6.22;4.60;;;;;;;;;;5089917;29;20087;-85
2022/07/11 10:55:19;;;;;;;;;;;;;;;;;;;;;
2022/07/11 11:01:39;;;;;;;4.82;3.70;;;;;;;;;;5092766;29;20033;-85
2022/07/11 11:04:29;;;;;;;6.45;4.43;;;;;;;;;;5094640;29;20045;-85
2022/07/11 11:07:09;;;;;;;6.03;3.75;;;;;;;;;;5080669;29;20040;-86
2022/07/11 11:10:03;;;;;;;4.88;3.70;;;;;;;;;;5063638;29;20430;-85
2022/07/11 11:16:24;;;;;;;4.45;3.10;;;;;;;;;;5076602;29;20211;-85
2022/07/11 11:22:46;;;;;;;;;;;;;;;;;;;;;
2022/07/11 11:42:03;;;;;;;;;;;;;;;;;;;;;
2022/07/11 11:55:09;;;;;;;3.10;2.30;;;;;;;;;;4958743;29;20036;-86
2022/07/11 12:01:09;;;;;;;3.85;1.92;;;;;;;;;;5062901;29;20041;-83
2022/07/11 12:03:54;;;;;;;2.25;1.40;;;;;;;;;;5122487;29;20100;-83
2022/07/11 12:06:26;;;;;;;1.55;1.20;;;;;;;;;;5117891;29;20032;-82
2022/07/11 12:09:04;;;;;;;1.20;1.10;;;;;;;;;;5137159;29;20134;-83
2022/07/11 12:11:39;;;;;;;3.03;1.20;;;;;;;;;;5137761;28;20078;-84
2022/07/11 12:14:12;;;;;;;3.13;1.27;;;;;;;;;;5135615;29;20036;-84
2022/07/11 12:16:49;;;;;;;1.30;1.20;;;;;;;;;;5114278;29;20079;-84
2022/07/11 12:19:24;;;;;;;1.20;1.10;;;;;;;;;;5132083;29;20123;-83
2022/07/11 12:21:56;;;;;;;1.35;1.20;;;;;;;;;;5135100;28;20131;-85
2022/07/11 12:24:30;;;;;;;3.83;1.20;;;;;;;;;;5140140;29;20039;-83
2022/07/11 12:27:02;;;;;;;1.30;1.20;;;;;;;;;;5121650;29;20041;-84
2022/07/11 12:29:44;;;;;;;2.92;1.42;;;;;;;;;;5140265;29;20030;-84
2022/07/11 12:32:16;;;;;;;0.75;0.75;;;;;;;;;;5121861;29;20513;-84
2022/07/11 12:34:49;;;;;;;3.28;0.98;;;;;;;;;;5122726;29;20044;-84
2022/07/11 12:37:21;;;;;;;0.90;0.90;;;;;;;;;;5139687;29;20024;-84
2022/07/11 12:40:06;;;;;;;1.58;0.70;;;;;;;;;;5122199;29;20043;-84
2022/07/11 12:42:46;;;;;;;2.95;0.90;;;;;;;;;;5122690;29;20032;-84
2022/07/11 12:45:20;;;;;;;2.42;0.90;;;;;;;;;;5133973;28;20031;-84
2022/07/11 12:47:55;;;;;;;2.67;0.60;;;;;;;;;;5145905;28;20033;-84
2022/07/11 12:50:33;;;;;;;2.72;0.85;;;;;;;;;;5122380;29;20582;-84
2022/07/11 12:53:11;;;;;;;0.60;0.60;;;;;;;;;;5137907;29;20063;-84
2022/07/11 12:55:57;;;;;;;1.00;0.60;;;;;;;;;;5139864;29;20039;-85
2022/07/11 12:58:43;;;;;;;2.53;1.00;;;;;;;;;;5138480;29;20096;-85
2022/07/11 13:01:14;;;;;;;3.10;0.82;;;;;;;;;;5132656;29;20057;-84
2022/07/11 13:03:45;;;;;;;4.13;0.90;;;;;;;;;;5130512;29;20036;-85
2022/07/11 13:08:41;;;;;;;1.02;0.90;;;;;;;;;;5138880;28;20074;-85
2022/07/11 13:09:08;;;;;;;2.85;0.93;;;;;;;;;;5135257;29;20044;-85
2022/07/11 13:11:40;;;;;;;0.95;0.80;;;;;;;;;;5110407;28;20051;-85
2022/07/11 13:15:08;;;;;;;1.02;0.60;;;;;;;;;;5139168;29;20040;-85
2022/07/11 13:17:14;;;;;;;1.00;0.75;;;;;;;;;;5138187;29;20140;-86
2022/07/11 13:19:48;;;;;;;1.10;1.00;;;;;;;;;;5139620;29;20082;-85
2022/07/11 13:22:20;;;;;;;1.13;1.00;;;;;;;;;;5137773;29;20083;-86
2022/07/11 13:24:52;;;;;;;0.98;0.80;;;;;;;;;;5139344;29;20544;-85
2022/07/11 13:27:26;;;;;;;3.17;0.70;;;;;;;;;;5132109;29;20164;-85
2022/07/11 13:30:01;;;;;;;0.50;0.50;;;;;;;;;;5118709;29;20490;-85
2022/07/11 13:32:32;;;;;;;1.15;0.70;;;;;;;;;;5124419;29;20056;-85
2022/07/11 13:35:03;;;;;;;1.83;0.60;;;;;;;;;;5122658;29;20457;-84
2022/07/11 13:37:37;;;;;;;2.25;0.70;;;;;;;;;;5122193;29;20021;-85
2022/07/11 13:40:10;;;;;;;3.22;0.60;;;;;;;;;;5139089;29;20092;-85
2022/07/11 13:42:45;;;;;;;1.10;0.55;;;;;;;;;;5139309;28;20020;-85
2022/07/11 13:45:23;;;;;;;1.75;0.70;;;;;;;;;;5142419;28;20110;-85
2022/07/11 13:47:57;;;;;;;0.70;0.70;;;;;;;;;;5142682;28;20030;-83
2022/07/11 13:50:31;;;;;;;1.25;0.80;;;;;;;;;;5132672;28;20037;-84
2022/07/11 13:53:12;;;;;;;0.50;0.50;;;;;;;;;;5118799;29;20045;-84
2022/07/11 13:55:46;;;;;;;3.03;0.77;;;;;;;;;;5126662;29;20111;-84
2022/07/11 13:58:27;;;;;;;4.38;0.73;;;;;;;;;;5121590;29;20062;-84
2022/07/11 14:00:59;;;;;;;0.73;0.65;;;;;;;;;;5120898;29;20047;-84
2022/07/11 14:03:33;;;;;;;0.88;0.82;;;;;;;;;;5122304;29;20499;-84
2022/07/11 14:06:07;;;;;;;1.13;0.80;;;;;;;;;;5120303;29;20376;-85
2022/07/11 14:08:40;;;;;;;0.98;0.68;;;;;;;;;;5137468;29;20047;-84
2022/07/11 14:11:16;;;;;;;2.22;0.73;;;;;;;;;;5137537;29;20032;-84
2022/07/11 14:13:50;;;;;;;1.95;0.82;;;;;;;;;;5139994;29;20027;-84
2022/07/11 14:16:24;;;;;;;0.77;0.77;;;;;;;;;;5142719;29;20058;-84
2022/07/11 14:18:56;;;;;;;0.60;0.60;;;;;;;;;;5139701;29;20062;-83
2022/07/11 14:21:33;;;;;;;1.42;0.85;;;;;;;;;;5125733;29;20473;-83
2022/07/11 14:24:04;;;;;;;0.90;0.70;;;;;;;;;;5139975;29;20040;-84
2022/07/11 14:26:36;;;;;;;0.85;0.70;;;;;;;;;;5142792;29;20064;-83
2022/07/11 14:29:08;;;;;;;1.73;0.60;;;;;;;;;;5125307;29;20036;-83
2022/07/11 14:31:42;;;;;;;0.63;0.50;;;;;;;;;;5141426;29;20058;-83
2022/07/11 14:34:13;;;;;;;1.25;0.70;;;;;;;;;;5137654;28;20036;-83
2022/07/11 14:36:44;;;;;;;1.13;0.63;;;;;;;;;;5144555;28;20066;-83
2022/07/11 14:39:16;;;;;;;1.03;0.80;;;;;;;;;;5125994;29;20119;-83
2022/07/11 14:41:47;;;;;;;1.15;0.80;;;;;;;;;;5149983;29;20044;-83
2022/07/11 14:44:22;;;;;;;0.77;0.70;;;;;;;;;;5156424;28;20064;-83
2022/07/11 14:46:53;;;;;;;1.38;0.90;;;;;;;;;;5173469;28;20043;-83
2022/07/11 14:49:27;;;;;;;2.60;0.82;;;;;;;;;;5146077;28;20048;-83
2022/07/11 14:52:02;;;;;;;0.70;0.70;;;;;;;;;;5127554;29;20017;-83
2022/07/11 14:54:33;;;;;;;1.25;0.80;;;;;;;;;;5142014;29;20039;-83
2022/07/11 14:57:04;;;;;;;0.70;0.70;;;;;;;;;;5139517;29;20036;-84
2022/07/11 14:59:36;;;;;;;1.42;0.80;;;;;;;;;;5141156;28;20160;-84
2022/07/11 15:03:37;;;;;;;1.27;0.80;;;;;;;;;;5141413;29;20036;-83
2022/07/11 15:05:07;;;;;;;0.73;0.73;;;;;;;;;;5149819;28;20347;-83
2022/07/11 15:13:20;;;;;;;1.10;0.90;;;;;;;;;;5136911;28;20040;-83
2022/07/11 15:15:51;;;;;;;1.42;0.93;;;;;;;;;;5124210;29;20024;-83
2022/07/11 15:18:23;;;;;;;1.67;0.90;;;;;;;;;;5142057;29;20035;-83
2022/07/11 15:20:54;;;;;;;1.08;0.93;;;;;;;;;;5140055;29;20028;-83
2022/07/11 15:23:25;;;;;;;2.05;0.90;;;;;;;;;;5140740;28;20087;-83
2022/07/11 15:25:57;;;;;;;3.27;1.63;;;;;;;;;;5140791;29;20335;-84
2022/07/11 15:28:28;;;;;;;2.37;0.87;;;;;;;;;;5124417;29;20041;-84
2022/07/11 15:31:00;;;;;;;1.55;0.82;;;;;;;;;;5121451;29;20044;-84
2022/07/11 15:33:31;;;;;;;1.38;1.10;;;;;;;;;;5140512;29;20075;-84
2022/07/11 15:36:03;;;;;;;1.00;0.90;;;;;;;;;;5134129;28;20040;-84
2022/07/11 15:38:34;;;;;;;1.30;1.00;;;;;;;;;;5134468;29;20027;-84
2022/07/11 15:41:05;;;;;;;0.90;0.90;;;;;;;;;;5133818;29;20043;-85
2022/07/11 15:43:37;;;;;;;1.40;1.10;;;;;;;;;;5128081;29;20512;-84
2022/07/11 15:46:09;;;;;;;1.02;0.90;;;;;;;;;;5130957;28;20055;-84
2022/07/11 15:48:40;;;;;;;1.35;1.10;;;;;;;;;;5116567;29;20032;-85
2022/07/11 15:51:11;;;;;;;1.70;0.90;;;;;;;;;;5112032;29;20139;-84
2022/07/11 15:53:42;;;;;;;1.90;1.13;;;;;;;;;;5133385;29;20020;-84
2022/07/11 15:56:14;;;;;;;1.50;1.07;;;;;;;;;;5136225;29;20036;-85
2022/07/11 15:58:47;;;;;;;2.30;0.90;;;;;;;;;;5136191;29;20028;-85
2022/07/11 16:01:20;;;;;;;1.80;1.00;;;;;;;;;;5116156;29;20131;-85
2022/07/11 16:03:51;;;;;;;1.40;0.93;;;;;;;;;;5118086;29;20040;-85
2022/07/11 16:06:22;;;;;;;0.90;0.80;;;;;;;;;;5116670;29;20044;-85
2022/07/11 16:08:54;;;;;;;1.43;1.03;;;;;;;;;;5118340;29;20630;-84
2022/07/11 16:11:25;;;;;;;2.00;1.13;;;;;;;;;;5130961;29;20303;-84
2022/07/11 16:13:57;;;;;;;1.35;1.10;;;;;;;;;;5130565;29;20032;-84
2022/07/11 16:16:28;;;;;;;1.48;1.05;;;;;;;;;;5131640;29;20467;-84
2022/07/11 16:19:00;;;;;;;2.25;1.00;;;;;;;;;;5132266;29;20142;-85
2022/07/11 16:21:31;;;;;;;1.95;1.00;;;;;;;;;;5131059;29;20036;-84
2022/07/11 16:24:04;;;;;;;1.77;1.30;;;;;;;;;;5144334;29;20489;-84
2022/07/11 16:26:37;;;;;;;1.23;0.98;;;;;;;;;;5145906;29;20367;-85
2022/07/11 16:29:31;;;;;;;2.40;1.08;;;;;;;;;;5145266;29;20039;-86
2022/07/11 16:32:05;;;;;;;2.40;1.00;;;;;;;;;;5106602;29;20044;-86
2022/07/11 16:34:46;;;;;;;2.90;1.17;;;;;;;;;;5115214;28;20151;-86
2022/07/11 16:37:17;;;;;;;1.92;0.93;;;;;;;;;;5135150;28;20107;-85
2022/07/11 16:46:21;;;;;;;2.33;1.00;;;;;;;;;;5158124;28;20042;-86
2022/07/11 16:48:58;;;;;;;2.13;1.08;;;;;;;;;;5152489;28;20047;-86
2022/07/11 16:51:54;;;;;;;2.15;0.90;;;;;;;;;;5161485;28;20052;-85
2022/07/11 16:54:29;;;;;;;2.43;1.03;;;;;;;;;;5145342;29;20568;-85
2022/07/11 16:57:09;;;;;;;4.07;1.00;;;;;;;;;;5131894;28;20060;-85
2022/07/11 16:59:47;;;;;;;1.00;0.90;;;;;;;;;;5114013;29;20283;-85
2022/07/11 17:02:22;;;;;;;2.15;1.10;;;;;;;;;;5113549;28;20452;-85
2022/07/11 17:05:11;;;;;;;1.13;1.02;;;;;;;;;;5131235;28;20552;-85
2022/07/11 17:08:42;;;;;;;2.67;1.05;;;;;;;;;;5125600;29;20131;-86
2022/07/11 17:10:42;;;;;;;1.63;0.80;;;;;;;;;;5135692;28;20036;-85
2022/07/11 17:13:19;;;;;;;1.60;0.82;;;;;;;;;;5122980;28;20032;-86
2022/07/11 17:16:06;;;;;;;1.27;0.70;;;;;;;;;;5116116;28;20052;-86
2022/07/11 17:18:38;;;;;;;1.75;0.80;;;;;;;;;;5124063;28;20024;-86
2022/07/11 17:21:27;;;;;;;;;;;;;;;;;;;;;
2022/07/11 17:24:11;;;;;;;1.40;0.90;;;;;;;;;;5132580;28;42537;-86
2022/07/11 17:26:44;;;;;;;1.30;1.00;;;;;;;;;;5121278;29;20036;-85
2022/07/11 17:29:24;;;;;;;1.33;0.90;;;;;;;;;;5125236;29;20099;-85
2022/07/11 17:32:12;;;;;;;;;;;;;;;;;;;;;
2022/07/11 17:35:04;;;;;;;1.77;0.80;;;;;;;;;;5137409;28;41229;-86
2022/07/11 17:37:40;;;;;;;2.50;0.80;;;;;;;;;;5121059;29;20590;-86
2022/07/11 17:40:15;;;;;;;1.00;0.82;;;;;;;;;;5120381;29;20044;-86
2022/07/11 17:42:56;;;;;;;0.93;0.82;;;;;;;;;;5120570;29;20043;-86
2022/07/11 17:45:30;;;;;;;1.73;1.00;;;;;;;;;;5132740;28;20485;-86
2022/07/11 17:48:05;;;;;;;2.50;1.00;;;;;;;;;;5158531;28;20031;-86
2022/07/11 17:50:56;;;;;;;1.50;1.00;;;;;;;;;;5140566;28;20490;-86
2022/07/11 17:53:28;;;;;;;1.17;0.95;;;;;;;;;;5140188;28;20461;-87
2022/07/11 17:56:02;;;;;;;1.20;1.10;;;;;;;;;;5141350;28;20119;-87
2022/07/11 17:58:35;;;;;;;1.67;0.80;;;;;;;;;;5140630;28;20054;-87
2022/07/11 18:01:20;;;;;;;1.70;0.88;;;;;;;;;;5138698;28;20512;-86
2022/07/11 18:04:04;;;;;;;2.85;1.00;;;;;;;;;;5120622;29;20028;-86
2022/07/11 18:06:36;;;;;;;2.03;0.85;;;;;;;;;;5158107;28;20027;-85
2022/07/11 18:09:07;;;;;;;1.17;0.82;;;;;;;;;;5140584;28;20040;-86
2022/07/11 18:11:58;;;;;;;;;;;;;;;;;;;;;
2022/07/11 18:14:50;;;;;;;2.22;0.90;;;;;;;;;;5157632;28;40711;-85
2022/07/11 18:17:49;;;;;;;3.50;1.17;;;;;;;;;;5139755;28;20034;-86
2022/07/11 18:20:21;;;;;;;2.33;0.88;;;;;;;;;;5136271;28;20071;-85
2022/07/11 18:23:04;;;;;;;3.13;1.00;;;;;;;;;;5140540;28;20036;-85
2022/07/11 18:26:24;;;;;;;1.83;0.90;;;;;;;;;;5141643;28;20587;-86
2022/07/11 18:28:49;;;;;;;2.85;1.15;;;;;;;;;;5151489;28;20473;-86
2022/07/11 18:31:30;;;;;;;1.35;1.10;;;;;;;;;;4950324;28;5546054;-85
2022/07/11 18:34:04;;;;;;;1.45;0.95;;;;;;;;;;5120375;29;20335;-86
2022/07/11 18:36:50;;;;;;;1.95;0.60;;;;;;;;;;5104445;29;20127;-86
2022/07/11 18:42:29;;;;;;;;;;;;;;;;;;;;;
2022/07/11 18:45:04;;;;;;;0.95;0.70;;;;;;;;;;5118842;29;40808;-85
2022/07/11 18:47:41;;;;;;;0.68;0.60;;;;;;;;;;5101816;29;20029;-85
2022/07/11 18:50:21;;;;;;;2.00;0.77;;;;;;;;;;5101997;29;20136;-86
2022/07/11 18:52:59;;;;;;;5.80;1.40;;;;;;;;;;5102169;29;20438;-85
2022/07/11 18:55:55;;;;;;;2.17;0.80;;;;;;;;;;5091715;29;20131;-86
2022/07/11 18:58:26;;;;;;;0.93;0.90;;;;;;;;;;5121409;29;20032;-86
2022/07/11 19:01:10;;;;;;;5.65;0.77;;;;;;;;;;5098211;29;20040;-87
2022/07/11 19:04:06;;;;;;;3.47;0.90;;;;;;;;;;5105092;29;20035;-86
2022/07/11 19:06:46;;;;;;;2.40;0.80;;;;;;;;;;5106735;29;20111;-87
2022/07/11 19:09:34;;;;;;;3.88;0.90;;;;;;;;;;5123753;29;20120;-86
2022/07/11 19:12:12;;;;;;;1.27;0.98;;;;;;;;;;5105766;29;20045;-87
2022/07/11 19:14:52;;;;;;;1.10;1.00;;;;;;;;;;5105024;29;20059;-86
2022/07/11 19:17:36;;;;;;;1.67;0.90;;;;;;;;;;5106011;29;20039;-85
2022/07/11 19:20:24;;;;;;;0.80;0.80;;;;;;;;;;5106161;29;20355;-86
2022/07/11 19:23:15;;;;;;;1.70;0.93;;;;;;;;;;5105778;29;20571;-87
2022/07/11 19:32:30;;;;;;;3.22;1.10;;;;;;;;;;5128978;29;20438;-86
2022/07/11 19:38:08;;;;;;;2.88;1.40;;;;;;;;;;5135011;29;20039;-87
2022/07/11 19:40:48;;;;;;;2.20;1.20;;;;;;;;;;5123100;29;20501;-87
2022/07/11 19:43:49;;;;;;;3.40;0.88;;;;;;;;;;5127873;29;20100;-86
2022/07/11 19:47:00;;;;;;;1.92;1.15;;;;;;;;;;5136364;29;20197;-86
2022/07/11 19:49:40;;;;;;;3.22;1.48;;;;;;;;;;5137787;29;20040;-87
2022/07/11 19:52:51;;;;;;;2.33;1.17;;;;;;;;;;5139359;29;20031;-86
2022/07/11 19:58:40;;;;;;;6.60;1.60;;;;;;;;;;5146394;29;20112;-86
2022/07/11 20:01:35;;;;;;;3.75;1.40;;;;;;;;;;5126270;29;20491;-87
2022/07/11 20:04:22;;;;;;;;;;;;;;;;;;;;;
2022/07/11 20:07:18;;;;;;;1.63;1.15;;;;;;;;;;5123770;29;41256;-87
2022/07/11 20:10:08;;;;;;;;;;;;;;;;;;;;;
2022/07/11 20:12:57;;;;;;;2.00;1.70;;;;;;;;;;5123301;29;40303;-87
2022/07/11 20:15:40;;;;;;;4.20;1.45;;;;;;;;;;5122676;29;20041;-87
2022/07/11 20:18:20;;;;;;;3.67;1.77;;;;;;;;;;5125111;29;20033;-87
2022/07/11 20:21:06;;;;;;;;;;;;;;;;;;;;;
2022/07/11 20:23:41;;;;;;;3.65;1.85;;;;;;;;;;5122332;29;39969;-87
2022/07/11 20:26:18;;;;;;;7.95;1.73;;;;;;;;;;5142414;29;20146;-86
2022/07/11 20:28:54;;;;;;;5.72;2.10;;;;;;;;;;5124289;29;20016;-87
2022/07/11 20:31:50;;;;;;;2.60;1.38;;;;;;;;;;5123974;29;20353;-86
2022/07/11 20:34:26;;;;;;;3.67;1.95;;;;;;;;;;5137199;28;20102;-86
2022/07/11 20:37:08;;;;;;;;;;;;;;;;;;;;;
2022/07/11 20:39:42;;;;;;;4.78;2.30;;;;;;;;;;5125521;29;41481;-87
2022/07/11 20:42:14;;;;;;;3.95;1.77;;;;;;;;;;5117079;28;20040;-86
2022/07/11 20:44:47;;;;;;;6.43;2.10;;;;;;;;;;5120044;29;20488;-85
2022/07/11 20:47:19;;;;;;;5.18;2.25;;;;;;;;;;5132412;28;20124;-86
2022/07/11 20:49:50;;;;;;;2.45;1.50;;;;;;;;;;5137393;29;20125;-86
2022/07/11 20:52:47;;;;;;;2.90;1.70;;;;;;;;;;5116005;29;20073;-87
2022/07/11 20:55:19;;;;;;;;;;;;;;;;;;5135276;29;20031;-87
2022/07/11 20:57:56;;;;;;;7.10;1.88;;;;;;;;;;5138233;29;19965;-86
2022/07/11 21:04:04;;;;;;;2.75;1.20;;;;;;;;;;5133679;29;20069;-86
2022/07/11 21:09:35;;;;;;;;;;;;;;;;;;5136561;29;20461;-85
2022/07/11 21:12:09;;;;;;;5.05;2.40;;;;;;;;;;5136862;29;19996;-86
2022/07/11 21:14:51;;;;;;;2.80;1.70;;;;;;;;;;5134822;29;20046;-86
2022/07/11 21:17:30;;;;;;;1.98;1.65;;;;;;;;;;5135798;29;20119;-85
2022/07/11 21:20:11;;;;;;;5.72;2.88;;;;;;;;;;5134765;29;20032;-86
2022/07/11 21:22:56;;;;;;;9.43;2.78;;;;;;;;;;5135758;29;20043;-86
2022/07/11 21:25:40;;;;;;;7.28;2.88;;;;;;;;;;5118256;29;20350;-86
2022/07/11 21:28:31;;;;;;;2.88;2.58;;;;;;;;;;5140976;29;20042;-87
2022/07/11 21:31:06;;;;;;;6.10;2.70;;;;;;;;;;5130836;29;20045;-86
2022/07/11 21:33:40;;;;;;;5.45;2.28;;;;;;;;;;5145268;29;20072;-86
2022/07/11 21:36:17;;;;;;;2.20;2.00;;;;;;;;;;5143604;29;20037;-86
2022/07/11 21:38:51;;;;;;;2.10;1.40;;;;;;;;;;5124440;29;20389;-85
2022/07/11 21:44:19;;;;;;;3.85;1.60;;;;;;;;;;5127287;29;20036;-86
2022/07/11 21:46:54;;;;;;;4.47;2.40;;;;;;;;;;5117165;29;20044;-86
2022/07/11 21:49:33;;;;;;;2.05;1.60;;;;;;;;;;5130918;29;20781;-86
2022/07/11 21:52:08;;;;;;;5.30;1.77;;;;;;;;;;5116451;29;20516;-86
2022/07/11 21:54:42;;;;;;;5.18;2.20;;;;;;;;;;5130767;29;20092;-85
2022/07/11 21:57:16;;;;;;;3.83;1.98;;;;;;;;;;5119635;29;20466;-86
2022/07/11 21:59:54;;;;;;;3.90;2.13;;;;;;;;;;5131248;28;20443;-87
2022/07/11 22:02:31;;;;;;;6.15;1.95;;;;;;;;;;5133137;29;20110;-86
2022/07/11 22:05:05;;;;;;;6.00;2.47;;;;;;;;;;5121018;28;20631;-87
2022/07/11 22:07:39;;;;;;;1.77;1.67;;;;;;;;;;5120969;28;20035;-86
2022/07/11 22:10:10;;;;;;;3.05;1.85;;;;;;;;;;5119717;29;20100;-86
2022/07/11 22:12:41;;;;;;;3.92;2.33;;;;;;;;;;5136095;28;20039;-86
2022/07/11 22:15:25;;;;;;;2.83;2.22;;;;;;;;;;5149523;28;20520;-86
2022/07/11 22:18:01;;;;;;;3.58;2.30;;;;;;;;;;5135310;28;20035;-87
2022/07/11 22:20:32;;;;;;;4.80;2.45;;;;;;;;;;5127353;28;20060;-87
2022/07/11 22:23:04;;;;;;;3.10;1.90;;;;;;;;;;5137735;28;20119;-87
2022/07/11 22:25:41;;;;;;;2.78;1.80;;;;;;;;;;5139945;28;20032;-87
2022/07/11 22:28:12;;;;;;;3.28;2.85;;;;;;;;;;5122231;29;20043;-87